Google Maps JavaScript API Example
Pilot Flight Report # 94268 Submitted by : AST775 on 2020-07-31
Date: 2020-07-31Aircraft: Boeing 737 MAX7
Flight No.: Not AvailableDistance (Nm): 2106.43
Departure: HECA - Cairo InternationalDestination: GMAD - Al-Massira
 TimeFuelWeightSpeeds  
Out (Taxi)0315Z34441 lbs147336 lbs Flight RulesVFR
Off (Takeoff)0316Z 147195 lbs170 ktsFlight Level33000
On (Landing)0757Z 122053 lbs136 ktsVSTD-201 ft/min
In (Ramp)0757Z9165 lbs122053 lbs ZFW112890 lbs
Flight4.70  -  4:4125135 lbs  Pax0
Block4.70  -  4:4225276 lbs  Cargo0
Departure Weather300707Z 32207KT 21SM SCT126 33/5 A3001
Destination WeatherGMAD 300757Z 24403KT 5SM SKC 23/18 A2988
Flight Commentsget ready for the August hoplist